sensor_id;sensor_type;location;lat;lon;timestamp;pressure;altitude;pressure_sealevel;temperature;humidity
47913;BME280;33676;51.006;17.180;2023-05-24T00:00:58;100022.61;;;15.41;96.73
47913;BME280;33676;51.006;17.180;2023-05-24T00:03:27;100020.10;;;15.35;97.04
47913;BME280;33676;51.006;17.180;2023-05-24T00:05:58;100025.48;;;15.27;97.05
47913;BME280;33676;51.006;17.180;2023-05-24T00:08:26;100022.30;;;15.18;96.83
47913;BME280;33676;51.006;17.180;2023-05-24T00:10:55;100023.90;;;15.09;96.85
47913;BME280;33676;51.006;17.180;2023-05-24T00:13:23;100025.46;;;14.99;96.77
47913;BME280;33676;51.006;17.180;2023-05-24T00:15:52;100023.98;;;14.91;96.90
47913;BME280;33676;51.006;17.180;2023-05-24T00:18:20;100032.61;;;14.82;97.12
47913;BME280;33676;51.006;17.180;2023-05-24T00:20:49;100036.20;;;14.73;97.04
47913;BME280;33676;51.006;17.180;2023-05-24T00:23:19;100035.91;;;14.64;97.18
47913;BME280;33676;51.006;17.180;2023-05-24T00:25:47;100037.44;;;14.55;97.57
47913;BME280;33676;51.006;17.180;2023-05-24T00:28:16;100039.59;;;14.46;97.32
47913;BME280;33676;51.006;17.180;2023-05-24T00:30:44;100038.23;;;14.36;97.61
47913;BME280;33676;51.006;17.180;2023-05-24T00:33:13;100048.55;;;14.26;98.08
47913;BME280;33676;51.006;17.180;2023-05-24T00:35:41;100036.93;;;14.13;98.14
47913;BME280;33676;51.006;17.180;2023-05-24T00:38:10;100032.62;;;14.00;98.11
47913;BME280;33676;51.006;17.180;2023-05-24T00:40:38;100039.72;;;13.90;98.58
47913;BME280;33676;51.006;17.180;2023-05-24T00:43:07;100040.23;;;13.81;99.23
47913;BME280;33676;51.006;17.180;2023-05-24T00:45:35;100045.48;;;13.70;99.35
47913;BME280;33676;51.006;17.180;2023-05-24T00:48:04;100051.65;;;13.61;99.59
47913;BME280;33676;51.006;17.180;2023-05-24T00:50:33;100043.32;;;13.52;99.68
47913;BME280;33676;51.006;17.180;2023-05-24T00:53:02;100049.46;;;13.45;99.78
47913;BME280;33676;51.006;17.180;2023-05-24T00:55:33;100053.89;;;13.37;99.98
47913;BME280;33676;51.006;17.180;2023-05-24T00:58:01;100059.25;;;13.31;100.00
47913;BME280;33676;51.006;17.180;2023-05-24T01:00:31;100062.92;;;13.23;100.00
47913;BME280;33676;51.006;17.180;2023-05-24T01:02:59;100067.61;;;13.18;99.98
47913;BME280;33676;51.006;17.180;2023-05-24T01:05:28;100066.70;;;13.14;100.00
47913;BME280;33676;51.006;17.180;2023-05-24T01:08:22;100071.14;;;13.10;100.00
47913;BME280;33676;51.006;17.180;2023-05-24T01:18:15;100086.99;;;13.00;100.00
47913;BME280;33676;51.006;17.180;2023-05-24T01:20:45;100093.86;;;12.96;100.00
47913;BME280;33676;51.006;17.180;2023-05-24T01:23:30;100099.23;;;12.92;100.00
47913;BME280;33676;51.006;17.180;2023-05-24T01:26:36;100102.28;;;12.88;100.00
47913;BME280;33676;51.006;17.180;2023-05-24T01:29:07;100111.41;;;12.82;100.00
47913;BME280;33676;51.006;17.180;2023-05-24T01:31:35;100108.23;;;12.73;100.00
47913;BME280;33676;51.006;17.180;2023-05-24T01:34:05;100099.57;;;12.61;100.00
47913;BME280;33676;51.006;17.180;2023-05-24T01:36:33;100101.89;;;12.51;100.00
47913;BME280;33676;51.006;17.180;2023-05-24T01:39:01;100108.41;;;12.41;100.00
47913;BME280;33676;51.006;17.180;2023-05-24T01:41:47;100114.31;;;12.32;100.00
47913;BME280;33676;51.006;17.180;2023-05-24T01:44:34;100114.04;;;12.23;100.00
47913;BME280;33676;51.006;17.180;2023-05-24T01:47:46;100115.92;;;12.16;100.00
47913;BME280;33676;51.006;17.180;2023-05-24T01:50:32;100118.70;;;12.06;100.00
47913;BME280;33676;51.006;17.180;2023-05-24T01:53:06;100123.08;;;11.98;100.00
47913;BME280;33676;51.006;17.180;2023-05-24T01:55:36;100120.83;;;11.92;100.00
47913;BME280;33676;51.006;17.180;2023-05-24T01:58:06;100126.45;;;11.85;100.00
47913;BME280;33676;51.006;17.180;2023-05-24T02:00:37;100127.54;;;11.79;100.00
47913;BME280;33676;51.006;17.180;2023-05-24T02:03:07;100130.44;;;11.73;100.00
47913;BME280;33676;51.006;17.180;2023-05-24T02:05:37;100128.03;;;11.69;100.00
47913;BME280;33676;51.006;17.180;2023-05-24T02:08:06;100132.29;;;11.64;100.00
47913;BME280;33676;51.006;17.180;2023-05-24T02:10:34;100136.10;;;11.58;100.00
47913;BME280;33676;51.006;17.180;2023-05-24T02:13:07;100133.88;;;11.51;100.00
47913;BME280;33676;51.006;17.180;2023-05-24T02:15:36;100138.25;;;11.45;100.00
47913;BME280;33676;51.006;17.180;2023-05-24T02:18:04;100138.33;;;11.40;100.00
47913;BME280;33676;51.006;17.180;2023-05-24T02:20:35;100136.59;;;11.36;100.00
47913;BME280;33676;51.006;17.180;2023-05-24T02:23:05;100137.55;;;11.33;100.00
47913;BME280;33676;51.006;17.180;2023-05-24T02:25:34;100146.80;;;11.29;100.00
47913;BME280;33676;51.006;17.180;2023-05-24T02:28:02;100141.23;;;11.22;100.00
47913;BME280;33676;51.006;17.180;2023-05-24T02:30:31;100147.05;;;11.17;100.00
47913;BME280;33676;51.006;17.180;2023-05-24T02:32:59;100145.05;;;11.12;100.00
47913;BME280;33676;51.006;17.180;2023-05-24T02:35:27;100152.14;;;11.06;100.00
47913;BME280;33676;51.006;17.180;2023-05-24T02:37:56;100152.89;;;11.02;100.00
47913;BME280;33676;51.006;17.180;2023-05-24T02:40:25;100156.57;;;10.97;100.00
47913;BME280;33676;51.006;17.180;2023-05-24T02:42:54;100156.38;;;10.93;100.00
47913;BME280;33676;51.006;17.180;2023-05-24T02:45:22;100164.27;;;10.91;100.00
47913;BME280;33676;51.006;17.180;2023-05-24T02:47:51;100167.20;;;10.87;100.00
47913;BME280;33676;51.006;17.180;2023-05-24T02:50:19;100164.83;;;10.84;100.00
47913;BME280;33676;51.006;17.180;2023-05-24T02:52:48;100166.59;;;10.82;100.00
47913;BME280;33676;51.006;17.180;2023-05-24T02:55:16;100172.61;;;10.79;100.00
47913;BME280;33676;51.006;17.180;2023-05-24T02:57:45;100174.11;;;10.77;100.00
47913;BME280;33676;51.006;17.180;2023-05-24T03:00:15;100177.20;;;10.76;100.00
47913;BME280;33676;51.006;17.180;2023-05-24T03:02:45;100189.42;;;10.77;100.00
47913;BME280;33676;51.006;17.180;2023-05-24T03:05:18;100187.86;;;10.76;100.00
47913;BME280;33676;51.006;17.180;2023-05-24T03:07:46;100191.04;;;10.76;100.00
47913;BME280;33676;51.006;17.180;2023-05-24T03:10:15;100191.90;;;10.76;100.00
47913;BME280;33676;51.006;17.180;2023-05-24T03:12:43;100188.90;;;10.76;100.00
47913;BME280;33676;51.006;17.180;2023-05-24T03:15:12;100187.96;;;10.77;100.00
47913;BME280;33676;51.006;17.180;2023-05-24T03:17:40;100189.44;;;10.78;100.00
47913;BME280;33676;51.006;17.180;2023-05-24T03:20:09;100191.46;;;10.79;100.00
47913;BME280;33676;51.006;17.180;2023-05-24T03:22:38;100197.49;;;10.80;100.00
47913;BME280;33676;51.006;17.180;2023-05-24T03:25:07;100201.19;;;10.82;100.00
47913;BME280;33676;51.006;17.180;2023-05-24T03:27:36;100198.61;;;10.84;100.00
47913;BME280;33676;51.006;17.180;2023-05-24T03:30:05;100200.11;;;10.85;100.00
47913;BME280;33676;51.006;17.180;2023-05-24T03:32:34;100200.73;;;10.86;100.00
47913;BME280;33676;51.006;17.180;2023-05-24T03:35:03;100201.97;;;10.85;100.00
47913;BME280;33676;51.006;17.180;2023-05-24T03:37:31;100206.33;;;10.86;100.00
47913;BME280;33676;51.006;17.180;2023-05-24T03:40:00;100214.02;;;10.86;100.00
47913;BME280;33676;51.006;17.180;2023-05-24T03:42:28;100210.79;;;10.87;100.00
47913;BME280;33676;51.006;17.180;2023-05-24T03:44:57;100211.52;;;10.88;100.00
47913;BME280;33676;51.006;17.180;2023-05-24T03:47:25;100206.33;;;10.90;100.00
47913;BME280;33676;51.006;17.180;2023-05-24T03:49:53;100212.89;;;10.91;100.00
47913;BME280;33676;51.006;17.180;2023-05-24T03:52:22;100214.36;;;10.92;100.00
47913;BME280;33676;51.006;17.180;2023-05-24T03:54:51;100215.64;;;10.93;100.00
47913;BME280;33676;51.006;17.180;2023-05-24T03:57:19;100212.17;;;10.95;100.00
47913;BME280;33676;51.006;17.180;2023-05-24T03:59:48;100213.91;;;10.98;100.00
47913;BME280;33676;51.006;17.180;2023-05-24T04:02:16;100211.66;;;11.00;100.00
47913;BME280;33676;51.006;17.180;2023-05-24T04:04:44;100212.41;;;11.01;100.00
47913;BME280;33676;51.006;17.180;2023-05-24T04:07:13;100212.05;;;11.03;100.00
47913;BME280;33676;51.006;17.180;2023-05-24T04:09:43;100217.02;;;11.05;100.00
47913;BME280;33676;51.006;17.180;2023-05-24T04:12:11;100222.80;;;11.06;100.00
47913;BME280;33676;51.006;17.180;2023-05-24T04:14:40;100226.40;;;11.08;100.00
47913;BME280;33676;51.006;17.180;2023-05-24T04:17:08;100231.21;;;11.08;100.00
47913;BME280;33676;51.006;17.180;2023-05-24T04:19:37;100233.79;;;11.11;100.00
47913;BME280;33676;51.006;17.180;2023-05-24T04:22:06;100235.29;;;11.14;100.00
47913;BME280;33676;51.006;17.180;2023-05-24T04:24:34;100243.84;;;11.17;100.00
47913;BME280;33676;51.006;17.180;2023-05-24T04:27:03;100241.96;;;11.16;100.00
47913;BME280;33676;51.006;17.180;2023-05-24T04:29:32;100245.13;;;11.18;100.00
47913;BME280;33676;51.006;17.180;2023-05-24T04:32:01;100245.74;;;11.19;100.00
47913;BME280;33676;51.006;17.180;2023-05-24T04:34:29;100246.95;;;11.21;100.00
47913;BME280;33676;51.006;17.180;2023-05-24T04:37:01;100254.20;;;11.25;100.00
47913;BME280;33676;51.006;17.180;2023-05-24T04:39:29;100252.98;;;11.27;100.00
47913;BME280;33676;51.006;17.180;2023-05-24T04:41:57;100255.40;;;11.30;100.00
47913;BME280;33676;51.006;17.180;2023-05-24T04:44:27;100255.35;;;11.33;100.00
47913;BME280;33676;51.006;17.180;2023-05-24T04:46:56;100259.20;;;11.35;100.00
47913;BME280;33676;51.006;17.180;2023-05-24T04:49:25;100260.84;;;11.38;100.00
47913;BME280;33676;51.006;17.180;2023-05-24T04:51:55;100262.53;;;11.43;100.00
47913;BME280;33676;51.006;17.180;2023-05-24T04:54:24;100263.73;;;11.45;100.00
47913;BME280;33676;51.006;17.180;2023-05-24T04:56:52;100269.31;;;11.50;100.00
47913;BME280;33676;51.006;17.180;2023-05-24T04:59:21;100275.52;;;11.51;100.00
47913;BME280;33676;51.006;17.180;2023-05-24T05:01:49;100281.91;;;11.52;100.00
47913;BME280;33676;51.006;17.180;2023-05-24T05:04:18;100286.17;;;11.53;100.00
47913;BME280;33676;51.006;17.180;2023-05-24T05:06:46;100287.53;;;11.56;100.00
47913;BME280;33676;51.006;17.180;2023-05-24T05:09:15;100287.86;;;11.58;100.00
47913;BME280;33676;51.006;17.180;2023-05-24T05:11:47;100288.56;;;11.60;100.00
47913;BME280;33676;51.006;17.180;2023-05-24T05:14:15;100288.59;;;11.62;100.00
47913;BME280;33676;51.006;17.180;2023-05-24T05:16:44;100291.25;;;11.66;100.00
47913;BME280;33676;51.006;17.180;2023-05-24T05:19:13;100293.98;;;11.69;100.00
47913;BME280;33676;51.006;17.180;2023-05-24T05:21:42;100295.80;;;11.72;100.00
47913;BME280;33676;51.006;17.180;2023-05-24T05:24:10;100296.45;;;11.78;100.00
47913;BME280;33676;51.006;17.180;2023-05-24T05:26:39;100304.39;;;11.81;100.00
47913;BME280;33676;51.006;17.180;2023-05-24T05:29:08;100306.39;;;11.82;100.00
47913;BME280;33676;51.006;17.180;2023-05-24T05:31:37;100309.69;;;11.83;100.00
47913;BME280;33676;51.006;17.180;2023-05-24T05:34:06;100305.60;;;11.83;100.00
47913;BME280;33676;51.006;17.180;2023-05-24T05:36:38;100317.42;;;11.82;100.00
47913;BME280;33676;51.006;17.180;2023-05-24T05:39:08;100319.23;;;11.84;100.00
47913;BME280;33676;51.006;17.180;2023-05-24T05:41:40;100317.45;;;11.86;100.00
47913;BME280;33676;51.006;17.180;2023-05-24T05:44:13;100319.05;;;11.88;100.00
47913;BME280;33676;51.006;17.180;2023-05-24T05:46:42;100312.05;;;11.90;100.00
47913;BME280;33676;51.006;17.180;2023-05-24T05:49:14;100310.40;;;11.93;100.00
47913;BME280;33676;51.006;17.180;2023-05-24T05:51:44;100319.21;;;11.99;100.00
47913;BME280;33676;51.006;17.180;2023-05-24T05:54:14;100320.73;;;12.02;100.00
47913;BME280;33676;51.006;17.180;2023-05-24T05:56:45;100330.38;;;12.01;100.00
47913;BME280;33676;51.006;17.180;2023-05-24T05:59:15;100332.45;;;12.00;100.00
47913;BME280;33676;51.006;17.180;2023-05-24T06:01:44;100326.68;;;11.96;100.00
47913;BME280;33676;51.006;17.180;2023-05-24T06:04:15;100331.45;;;11.91;100.00
47913;BME280;33676;51.006;17.180;2023-05-24T06:06:43;100334.09;;;11.86;100.00
47913;BME280;33676;51.006;17.180;2023-05-24T06:09:19;100336.69;;;11.80;100.00
47913;BME280;33676;51.006;17.180;2023-05-24T06:11:53;100343.52;;;11.76;100.00
47913;BME280;33676;51.006;17.180;2023-05-24T06:14:30;100349.63;;;11.74;100.00
47913;BME280;33676;51.006;17.180;2023-05-24T06:16:59;100360.36;;;11.73;100.00
47913;BME280;33676;51.006;17.180;2023-05-24T06:19:29;100365.10;;;11.71;100.00
47913;BME280;33676;51.006;17.180;2023-05-24T06:21:58;100365.23;;;11.74;100.00
47913;BME280;33676;51.006;17.180;2023-05-24T06:24:27;100363.84;;;11.82;100.00
47913;BME280;33676;51.006;17.180;2023-05-24T06:26:56;100363.48;;;11.93;100.00
47913;BME280;33676;51.006;17.180;2023-05-24T06:29:26;100366.98;;;12.04;100.00
47913;BME280;33676;51.006;17.180;2023-05-24T06:31:55;100371.16;;;12.16;100.00
47913;BME280;33676;51.006;17.180;2023-05-24T06:34:23;100369.68;;;12.28;100.00
47913;BME280;33676;51.006;17.180;2023-05-24T06:36:52;100371.30;;;12.38;100.00
47913;BME280;33676;51.006;17.180;2023-05-24T06:39:22;100379.80;;;12.43;100.00
47913;BME280;33676;51.006;17.180;2023-05-24T06:41:52;100383.28;;;12.47;100.00
47913;BME280;33676;51.006;17.180;2023-05-24T06:44:21;100389.30;;;12.53;100.00
47913;BME280;33676;51.006;17.180;2023-05-24T06:46:52;100388.54;;;12.57;100.00
47913;BME280;33676;51.006;17.180;2023-05-24T06:49:21;100389.30;;;12.64;100.00
47913;BME280;33676;51.006;17.180;2023-05-24T06:51:49;100387.35;;;12.72;100.00
47913;BME280;33676;51.006;17.180;2023-05-24T06:54:19;100390.66;;;12.80;100.00
47913;BME280;33676;51.006;17.180;2023-05-24T06:56:47;100384.93;;;12.85;100.00
47913;BME280;33676;51.006;17.180;2023-05-24T06:59:16;100386.19;;;12.93;99.92
47913;BME280;33676;51.006;17.180;2023-05-24T07:01:45;100388.63;;;13.04;99.86
47913;BME280;33676;51.006;17.180;2023-05-24T07:04:16;100392.33;;;13.14;99.37
47913;BME280;33676;51.006;17.180;2023-05-24T07:06:45;100398.01;;;13.21;98.67
47913;BME280;33676;51.006;17.180;2023-05-24T07:09:13;100407.02;;;13.31;98.27
47913;BME280;33676;51.006;17.180;2023-05-24T07:11:43;100415.46;;;13.42;97.94
47913;BME280;33676;51.006;17.180;2023-05-24T07:14:11;100411.20;;;13.51;97.59
47913;BME280;33676;51.006;17.180;2023-05-24T07:16:40;100413.70;;;13.60;97.46
47913;BME280;33676;51.006;17.180;2023-05-24T07:19:08;100413.85;;;13.70;97.70
47913;BME280;33676;51.006;17.180;2023-05-24T07:21:37;100425.11;;;13.86;97.26
47913;BME280;33676;51.006;17.180;2023-05-24T07:24:05;100432.37;;;13.95;96.25
47913;BME280;33676;51.006;17.180;2023-05-24T07:26:34;100427.41;;;14.00;95.51
47913;BME280;33676;51.006;17.180;2023-05-24T07:29:02;100434.34;;;14.04;94.97
47913;BME280;33676;51.006;17.180;2023-05-24T07:31:33;100436.59;;;14.09;94.74
47913;BME280;33676;51.006;17.180;2023-05-24T07:34:06;100444.57;;;14.17;95.01
47913;BME280;33676;51.006;17.180;2023-05-24T07:36:34;100454.40;;;14.25;94.20
47913;BME280;33676;51.006;17.180;2023-05-24T07:39:03;100455.70;;;14.29;94.04
47913;BME280;33676;51.006;17.180;2023-05-24T07:41:33;100460.65;;;14.30;93.75
47913;BME280;33676;51.006;17.180;2023-05-24T07:44:02;100461.29;;;14.27;93.19
47913;BME280;33676;51.006;17.180;2023-05-24T07:46:30;100459.83;;;14.28;93.59
47913;BME280;33676;51.006;17.180;2023-05-24T07:48:59;100464.05;;;14.33;94.14
47913;BME280;33676;51.006;17.180;2023-05-24T07:51:28;100465.58;;;14.38;93.75
47913;BME280;33676;51.006;17.180;2023-05-24T07:53:57;100473.57;;;14.43;93.31
47913;BME280;33676;51.006;17.180;2023-05-24T07:56:25;100472.05;;;14.50;92.81
47913;BME280;33676;51.006;17.180;2023-05-24T07:58:53;100465.40;;;14.59;92.89
47913;BME280;33676;51.006;17.180;2023-05-24T08:01:26;100471.30;;;14.73;92.95
47913;BME280;33676;51.006;17.180;2023-05-24T08:03:56;100474.07;;;14.87;92.56
47913;BME280;33676;51.006;17.180;2023-05-24T08:06:25;100471.23;;;14.91;92.23
47913;BME280;33676;51.006;17.180;2023-05-24T08:08:53;100471.23;;;14.97;92.55
47913;BME280;33676;51.006;17.180;2023-05-24T08:11:22;100474.83;;;15.05;92.72
47913;BME280;33676;51.006;17.180;2023-05-24T08:13:50;100479.98;;;15.08;91.95
47913;BME280;33676;51.006;17.180;2023-05-24T08:16:19;100478.23;;;15.03;91.76
47913;BME280;33676;51.006;17.180;2023-05-24T08:18:47;100481.43;;;15.01;91.83
47913;BME280;33676;51.006;17.180;2023-05-24T08:21:16;100479.16;;;14.95;91.68
47913;BME280;33676;51.006;17.180;2023-05-24T08:23:44;100480.30;;;14.79;90.99
47913;BME280;33676;51.006;17.180;2023-05-24T08:26:13;100476.79;;;14.61;90.75
47913;BME280;33676;51.006;17.180;2023-05-24T08:28:43;100477.68;;;14.52;90.83
47913;BME280;33676;51.006;17.180;2023-05-24T08:31:12;100485.13;;;14.49;90.78
47913;BME280;33676;51.006;17.180;2023-05-24T08:33:41;100478.85;;;14.52;90.65
47913;BME280;33676;51.006;17.180;2023-05-24T08:36:14;100476.59;;;14.62;91.22
47913;BME280;33676;51.006;17.180;2023-05-24T08:38:42;100481.39;;;14.69;90.92
47913;BME280;33676;51.006;17.180;2023-05-24T08:41:11;100486.02;;;14.78;90.77
47913;BME280;33676;51.006;17.180;2023-05-24T08:43:41;100485.52;;;14.85;90.35
47913;BME280;33676;51.006;17.180;2023-05-24T08:46:11;100489.48;;;14.94;90.17
47913;BME280;33676;51.006;17.180;2023-05-24T08:48:45;100488.59;;;15.08;90.66
47913;BME280;33676;51.006;17.180;2023-05-24T08:51:14;100486.90;;;15.32;91.37
47913;BME280;33676;51.006;17.180;2023-05-24T08:53:44;100495.87;;;15.57;91.06
47913;BME280;33676;51.006;17.180;2023-05-24T08:56:17;100492.91;;;15.74;90.17
47913;BME280;33676;51.006;17.180;2023-05-24T08:58:46;100497.36;;;15.85;90.07
47913;BME280;33676;51.006;17.180;2023-05-24T09:01:16;100498.10;;;15.92;89.36
47913;BME280;33676;51.006;17.180;2023-05-24T09:03:46;100499.05;;;16.02;88.94
47913;BME280;33676;51.006;17.180;2023-05-24T09:06:17;100493.31;;;16.15;88.50
47913;BME280;33676;51.006;17.180;2023-05-24T09:08:46;100500.20;;;16.30;88.49
47913;BME280;33676;51.006;17.180;2023-05-24T09:11:15;100497.37;;;16.44;88.37
47913;BME280;33676;51.006;17.180;2023-05-24T09:13:44;100503.11;;;16.57;88.04
47913;BME280;33676;51.006;17.180;2023-05-24T09:16:14;100506.23;;;16.68;87.26
47913;BME280;33676;51.006;17.180;2023-05-24T09:18:43;100514.39;;;16.75;86.47
47913;BME280;33676;51.006;17.180;2023-05-24T09:21:11;100508.80;;;16.76;86.16
47913;BME280;33676;51.006;17.180;2023-05-24T09:23:40;100514.92;;;16.77;86.04
47913;BME280;33676;51.006;17.180;2023-05-24T09:26:09;100512.27;;;16.71;86.08
47913;BME280;33676;51.006;17.180;2023-05-24T09:28:38;100511.34;;;16.74;86.53
47913;BME280;33676;51.006;17.180;2023-05-24T09:31:09;100511.28;;;16.76;85.46
47913;BME280;33676;51.006;17.180;2023-05-24T09:33:38;100504.89;;;16.66;85.18
47913;BME280;33676;51.006;17.180;2023-05-24T09:36:07;100509.52;;;16.57;85.39
47913;BME280;33676;51.006;17.180;2023-05-24T09:38:36;100511.98;;;16.49;85.29
47913;BME280;33676;51.006;17.180;2023-05-24T09:41:06;100506.26;;;16.47;85.45
47913;BME280;33676;51.006;17.180;2023-05-24T09:43:47;100511.28;;;16.57;85.66
47913;BME280;33676;51.006;17.180;2023-05-24T09:46:18;100513.08;;;16.65;85.65
47913;BME280;33676;51.006;17.180;2023-05-24T09:48:59;100516.36;;;16.73;84.45
47913;BME280;33676;51.006;17.180;2023-05-24T09:51:30;100520.21;;;16.71;83.96
47913;BME280;33676;51.006;17.180;2023-05-24T09:54:00;100515.69;;;16.69;83.78
47913;BME280;33676;51.006;17.180;2023-05-24T09:56:32;100518.15;;;16.73;83.78
47913;BME280;33676;51.006;17.180;2023-05-24T09:59:07;100519.11;;;16.81;83.78
47913;BME280;33676;51.006;17.180;2023-05-24T10:01:37;100520.64;;;16.96;84.20
47913;BME280;33676;51.006;17.180;2023-05-24T10:04:05;100520.66;;;17.11;84.54
47913;BME280;33676;51.006;17.180;2023-05-24T10:06:38;100522.59;;;17.21;84.66
47913;BME280;33676;51.006;17.180;2023-05-24T10:09:10;100529.11;;;17.25;84.20
47913;BME280;33676;51.006;17.180;2023-05-24T10:11:44;100523.66;;;17.28;83.81
47913;BME280;33676;51.006;17.180;2023-05-24T10:14:13;100528.65;;;17.36;83.84
47913;BME280;33676;51.006;17.180;2023-05-24T10:16:43;100530.09;;;17.46;83.78
47913;BME280;33676;51.006;17.180;2023-05-24T10:19:12;100523.92;;;17.49;83.34
47913;BME280;33676;51.006;17.180;2023-05-24T10:21:40;100527.45;;;17.48;82.80
47913;BME280;33676;51.006;17.180;2023-05-24T10:24:15;100527.88;;;17.45;83.17
47913;BME280;33676;51.006;17.180;2023-05-24T10:26:48;100527.33;;;17.37;82.40
47913;BME280;33676;51.006;17.180;2023-05-24T10:32:14;100532.59;;;17.31;82.53
47913;BME280;33676;51.006;17.180;2023-05-24T10:34:45;100537.62;;;17.19;81.66
47913;BME280;33676;51.006;17.180;2023-05-24T10:37:16;100535.64;;;17.08;81.50
47913;BME280;33676;51.006;17.180;2023-05-24T10:39:45;100536.26;;;17.01;81.56
47913;BME280;33676;51.006;17.180;2023-05-24T10:42:13;100538.42;;;16.99;81.75
47913;BME280;33676;51.006;17.180;2023-05-24T10:44:42;100540.65;;;16.97;81.54
47913;BME280;33676;51.006;17.180;2023-05-24T10:47:14;100540.50;;;16.89;81.48
47913;BME280;33676;51.006;17.180;2023-05-24T10:49:54;100542.02;;;16.90;81.84
47913;BME280;33676;51.006;17.180;2023-05-24T10:52:34;100541.08;;;16.87;81.22
47913;BME280;33676;51.006;17.180;2023-05-24T10:55:09;100540.30;;;16.81;80.83
47913;BME280;33676;51.006;17.180;2023-05-24T10:57:39;100535.11;;;16.80;81.00
47913;BME280;33676;51.006;17.180;2023-05-24T11:03:07;100539.89;;;16.92;81.57
47913;BME280;33676;51.006;17.180;2023-05-24T11:08:34;100543.74;;;16.78;80.80
47913;BME280;33676;51.006;17.180;2023-05-24T11:11:08;100548.02;;;16.69;80.70
47913;BME280;33676;51.006;17.180;2023-05-24T11:13:55;100551.11;;;16.63;80.91
47913;BME280;33676;51.006;17.180;2023-05-24T11:16:39;100555.05;;;16.62;80.86
47913;BME280;33676;51.006;17.180;2023-05-24T11:19:22;100557.65;;;16.64;80.78
47913;BME280;33676;51.006;17.180;2023-05-24T11:21:51;100554.71;;;16.62;80.81
47913;BME280;33676;51.006;17.180;2023-05-24T11:24:21;100556.00;;;16.62;80.79
47913;BME280;33676;51.006;17.180;2023-05-24T11:26:50;100558.73;;;16.53;80.37
47913;BME280;33676;51.006;17.180;2023-05-24T11:29:20;100560.23;;;16.43;80.35
47913;BME280;33676;51.006;17.180;2023-05-24T11:31:53;100566.46;;;16.39;80.59
47913;BME280;33676;51.006;17.180;2023-05-24T11:34:25;100564.14;;;16.36;80.39
47913;BME280;33676;51.006;17.180;2023-05-24T11:36:54;100565.38;;;16.31;80.12
47913;BME280;33676;51.006;17.180;2023-05-24T11:39:28;100563.77;;;16.29;80.41
47913;BME280;33676;51.006;17.180;2023-05-24T11:41:56;100561.48;;;16.32;80.81
47913;BME280;33676;51.006;17.180;2023-05-24T11:44:28;100560.71;;;16.33;80.51
47913;BME280;33676;51.006;17.180;2023-05-24T11:47:06;100564.44;;;16.38;80.72
47913;BME280;33676;51.006;17.180;2023-05-24T11:49:35;100563.39;;;16.49;80.99
47913;BME280;33676;51.006;17.180;2023-05-24T11:52:03;100559.54;;;16.65;81.33
47913;BME280;33676;51.006;17.180;2023-05-24T11:54:32;100563.46;;;16.80;81.46
47913;BME280;33676;51.006;17.180;2023-05-24T11:57:02;100567.84;;;16.90;80.83
47913;BME280;33676;51.006;17.180;2023-05-24T11:59:30;100567.39;;;16.91;80.62
47913;BME280;33676;51.006;17.180;2023-05-24T12:02:04;100570.14;;;16.93;80.42
47913;BME280;33676;51.006;17.180;2023-05-24T12:04:35;100569.27;;;16.97;80.30
47913;BME280;33676;51.006;17.180;2023-05-24T12:07:09;100562.21;;;17.01;80.23
47913;BME280;33676;51.006;17.180;2023-05-24T12:09:38;100565.45;;;17.12;80.39
47913;BME280;33676;51.006;17.180;2023-05-24T12:12:08;100562.66;;;17.15;79.59
47913;BME280;33676;51.006;17.180;2023-05-24T12:14:38;100562.18;;;17.16;79.13
47913;BME280;33676;51.006;17.180;2023-05-24T12:17:13;100563.43;;;17.17;78.92
47913;BME280;33676;51.006;17.180;2023-05-24T12:19:50;100559.40;;;17.18;78.98
47913;BME280;33676;51.006;17.180;2023-05-24T12:22:28;100560.98;;;17.20;78.82
47913;BME280;33676;51.006;17.180;2023-05-24T12:25:02;100564.77;;;17.18;78.53
47913;BME280;33676;51.006;17.180;2023-05-24T12:27:30;100561.83;;;17.14;78.44
47913;BME280;33676;51.006;17.180;2023-05-24T12:30:08;100558.08;;;17.18;78.61
47913;BME280;33676;51.006;17.180;2023-05-24T12:32:40;100557.84;;;17.27;78.45
47913;BME280;33676;51.006;17.180;2023-05-24T12:35:10;100551.20;;;17.40;78.64
47913;BME280;33676;51.006;17.180;2023-05-24T12:37:38;100550.61;;;17.61;78.90
47913;BME280;33676;51.006;17.180;2023-05-24T12:40:20;100553.75;;;17.82;78.74
47913;BME280;33676;51.006;17.180;2023-05-24T12:42:55;100552.73;;;17.99;78.47
47913;BME280;33676;51.006;17.180;2023-05-24T12:45:26;100551.39;;;18.13;78.79
47913;BME280;33676;51.006;17.180;2023-05-24T12:47:57;100549.45;;;18.26;78.68
47913;BME280;33676;51.006;17.180;2023-05-24T12:50:27;100552.83;;;18.38;78.41
47913;BME280;33676;51.006;17.180;2023-05-24T12:52:56;100554.27;;;18.45;78.08
47913;BME280;33676;51.006;17.180;2023-05-24T12:55:26;100556.30;;;18.51;77.86
47913;BME280;33676;51.006;17.180;2023-05-24T12:57:56;100559.02;;;18.51;77.21
47913;BME280;33676;51.006;17.180;2023-05-24T13:00:27;100555.50;;;18.47;77.18
47913;BME280;33676;51.006;17.180;2023-05-24T13:02:56;100558.09;;;18.48;77.32
47913;BME280;33676;51.006;17.180;2023-05-24T13:05:27;100559.63;;;18.50;77.46
47913;BME280;33676;51.006;17.180;2023-05-24T13:07:57;100563.63;;;18.44;76.56